sensor_id;sensor_type;location;lat;lon;timestamp;pressure;altitude;pressure_sealevel;temperature;humidity
14067;BME280;7108;42.684;23.350;2023-09-18T00:00:49;95877.09;;;19.00;100.00
14067;BME280;7108;42.684;23.350;2023-09-18T00:03:18;95833.47;;;18.79;100.00
14067;BME280;7108;42.684;23.350;2023-09-18T00:05:46;95855.66;;;18.95;100.00
14067;BME280;7108;42.684;23.350;2023-09-18T00:08:13;95844.38;;;18.79;100.00
14067;BME280;7108;42.684;23.350;2023-09-18T00:10:39;95856.06;;;18.90;100.00
14067;BME280;7108;42.684;23.350;2023-09-18T00:13:04;95852.19;;;18.84;100.00
14067;BME280;7108;42.684;23.350;2023-09-18T00:15:30;95854.50;;;18.96;100.00
14067;BME280;7108;42.684;23.350;2023-09-18T00:17:56;95822.19;;;18.77;100.00
14067;BME280;7108;42.684;23.350;2023-09-18T00:20:21;95833.06;;;18.87;100.00
14067;BME280;7108;42.684;23.350;2023-09-18T00:22:54;95828.34;;;18.88;100.00
14067;BME280;7108;42.684;23.350;2023-09-18T00:25:21;95851.34;;;19.04;100.00
14067;BME280;7108;42.684;23.350;2023-09-18T00:27:47;95824.88;;;18.87;100.00
14067;BME280;7108;42.684;23.350;2023-09-18T00:30:12;95843.97;;;18.94;100.00
14067;BME280;7108;42.684;23.350;2023-09-18T00:32:37;95849.03;;;18.99;100.00
14067;BME280;7108;42.684;23.350;2023-09-18T00:35:03;95794.50;;;18.71;100.00
14067;BME280;7108;42.684;23.350;2023-09-18T00:37:29;95854.84;;;19.11;100.00
14067;BME280;7108;42.684;23.350;2023-09-18T00:39:54;95841.19;;;19.05;100.00
14067;BME280;7108;42.684;23.350;2023-09-18T00:42:20;95851.72;;;19.06;100.00
14067;BME280;7108;42.684;23.350;2023-09-18T00:44:48;95853.69;;;19.06;100.00
14067;BME280;7108;42.684;23.350;2023-09-18T00:47:14;95832.25;;;18.90;100.00
14067;BME280;7108;42.684;23.350;2023-09-18T00:49:41;95855.25;;;19.10;100.00
14067;BME280;7108;42.684;23.350;2023-09-18T00:52:09;95835.78;;;18.94;100.00
14067;BME280;7108;42.684;23.350;2023-09-18T00:54:37;95842.41;;;18.97;100.00
14067;BME280;7108;42.684;23.350;2023-09-18T00:57:04;95849.84;;;18.89;100.00
14067;BME280;7108;42.684;23.350;2023-09-18T00:59:30;95833.47;;;18.79;100.00
14067;BME280;7108;42.684;23.350;2023-09-18T01:01:56;95850.25;;;18.84;100.00
14067;BME280;7108;42.684;23.350;2023-09-18T01:04:22;95852.19;;;18.87;100.00
14067;BME280;7108;42.684;23.350;2023-09-18T01:06:48;95853.34;;;18.93;100.00
14067;BME280;7108;42.684;23.350;2023-09-18T01:09:16;95848.28;;;18.92;100.00
14067;BME280;7108;42.684;23.350;2023-09-18T01:12:18;95860.38;;;18.91;100.00
14067;BME280;7108;42.684;23.350;2023-09-18T01:14:52;95863.47;;;18.93;100.00
14067;BME280;7108;42.684;23.350;2023-09-18T01:17:19;95834.28;;;18.76;100.00
14067;BME280;7108;42.684;23.350;2023-09-18T01:19:46;95864.25;;;18.93;100.00
14067;BME280;7108;42.684;23.350;2023-09-18T01:22:14;95833.13;;;18.70;100.00
14067;BME280;7108;42.684;23.350;2023-09-18T01:24:40;95832.31;;;18.76;100.00
14067;BME280;7108;42.684;23.350;2023-09-18T01:27:11;95863.84;;;18.91;100.00
14067;BME280;7108;42.684;23.350;2023-09-18T01:29:38;95869.31;;;18.91;100.00
14067;BME280;7108;42.684;23.350;2023-09-18T01:32:04;95844.38;;;18.79;100.00
14067;BME280;7108;42.684;23.350;2023-09-18T01:34:33;95865.81;;;18.91;100.00
14067;BME280;7108;42.684;23.350;2023-09-18T01:37:03;95819.47;;;18.59;100.00
14067;BME280;7108;42.684;23.350;2023-09-18T01:39:31;95838.16;;;18.75;100.00
14067;BME280;7108;42.684;23.350;2023-09-18T01:41:59;95851.38;;;18.90;100.00
14067;BME280;7108;42.684;23.350;2023-09-18T01:44:25;95853.31;;;18.97;100.00
14067;BME280;7108;42.684;23.350;2023-09-18T01:46:52;95838.91;;;18.86;100.00
14067;BME280;7108;42.684;23.350;2023-09-18T01:49:32;95860.31;;;19.01;100.00
14067;BME280;7108;42.684;23.350;2023-09-18T01:51:58;95852.94;;;18.95;100.00
14067;BME280;7108;42.684;23.350;2023-09-18T01:54:24;95853.34;;;18.93;100.00
14067;BME280;7108;42.684;23.350;2023-09-18T01:56:50;95848.69;;;18.87;100.00
14067;BME280;7108;42.684;23.350;2023-09-18T01:59:17;95858.03;;;18.89;100.00
14067;BME280;7108;42.684;23.350;2023-09-18T02:01:43;95838.97;;;18.72;100.00
14067;BME280;7108;42.684;23.350;2023-09-18T02:04:09;95849.81;;;18.93;100.00
14067;BME280;7108;42.684;23.350;2023-09-18T02:06:35;95875.53;;;18.99;100.00
14067;BME280;7108;42.684;23.350;2023-09-18T02:09:00;95858.38;;;18.95;100.00
14067;BME280;7108;42.684;23.350;2023-09-18T02:11:26;95854.09;;;18.97;100.00
14067;BME280;7108;42.684;23.350;2023-09-18T02:13:52;95851.34;;;18.97;100.00
14067;BME280;7108;42.684;23.350;2023-09-18T02:16:17;95862.63;;;19.06;100.00
14067;BME280;7108;42.684;23.350;2023-09-18T02:18:48;95871.66;;;19.10;100.00
14067;BME280;7108;42.684;23.350;2023-09-18T02:21:20;95850.59;;;19.00;100.00
14067;BME280;7108;42.684;23.350;2023-09-18T02:23:52;95857.97;;;19.03;100.00
14067;BME280;7108;42.684;23.350;2023-09-18T02:26:19;95858.75;;;19.10;100.00
14067;BME280;7108;42.684;23.350;2023-09-18T02:28:44;95858.34;;;19.12;100.00
14067;BME280;7108;42.684;23.350;2023-09-18T02:31:10;95810.84;;;18.82;100.00
14067;BME280;7108;42.684;23.350;2023-09-18T02:33:36;95856.81;;;19.04;100.00
14067;BME280;7108;42.684;23.350;2023-09-18T02:36:02;95857.22;;;18.96;100.00
14067;BME280;7108;42.684;23.350;2023-09-18T02:38:28;95873.22;;;18.97;100.00
14067;BME280;7108;42.684;23.350;2023-09-18T02:40:55;95846.31;;;18.85;100.00
14067;BME280;7108;42.684;23.350;2023-09-18T02:43:22;95847.13;;;18.79;100.00
14067;BME280;7108;42.684;23.350;2023-09-18T02:45:48;95849.47;;;18.77;100.00
14067;BME280;7108;42.684;23.350;2023-09-18T02:48:13;95855.72;;;18.81;100.00
14067;BME280;7108;42.684;23.350;2023-09-18T02:50:39;95851.06;;;18.71;100.00
14067;BME280;7108;42.684;23.350;2023-09-18T02:53:06;95810.94;;;18.47;100.00
14067;BME280;7108;42.684;23.350;2023-09-18T02:55:32;95832.00;;;18.53;100.00
14067;BME280;7108;42.684;23.350;2023-09-18T02:57:57;95869.72;;;18.86;100.00
14067;BME280;7108;42.684;23.350;2023-09-18T03:00:24;95879.88;;;18.89;100.00
14067;BME280;7108;42.684;23.350;2023-09-18T03:02:49;95854.91;;;18.80;100.00
14067;BME280;7108;42.684;23.350;2023-09-18T03:05:15;95818.34;;;18.46;100.00
14067;BME280;7108;42.684;23.350;2023-09-18T03:07:40;95862.75;;;18.71;100.00
14067;BME280;7108;42.684;23.350;2023-09-18T03:10:06;95861.94;;;18.78;100.00
14067;BME280;7108;42.684;23.350;2023-09-18T03:12:32;95854.94;;;18.70;100.00
14067;BME280;7108;42.684;23.350;2023-09-18T03:14:59;95853.38;;;18.72;100.00
14067;BME280;7108;42.684;23.350;2023-09-18T03:17:24;95847.53;;;18.74;100.00
14067;BME280;7108;42.684;23.350;2023-09-18T03:19:50;95864.66;;;18.81;100.00
14067;BME280;7108;42.684;23.350;2023-09-18T03:22:15;95843.63;;;18.68;100.00
14067;BME280;7108;42.684;23.350;2023-09-18T03:24:41;95865.06;;;18.80;100.00
14067;BME280;7108;42.684;23.350;2023-09-18T03:27:09;95856.13;;;18.65;100.00
14067;BME280;7108;42.684;23.350;2023-09-18T03:29:35;95834.69;;;18.64;100.00
14067;BME280;7108;42.684;23.350;2023-09-18T03:32:00;95852.63;;;18.72;100.00
14067;BME280;7108;42.684;23.350;2023-09-18T03:34:25;95815.97;;;18.52;100.00
14067;BME280;7108;42.684;23.350;2023-09-18T03:36:54;95847.53;;;18.70;100.00
14067;BME280;7108;42.684;23.350;2023-09-18T03:39:19;95847.16;;;18.72;100.00
14067;BME280;7108;42.684;23.350;2023-09-18T03:41:45;95783.28;;;18.31;100.00
14067;BME280;7108;42.684;23.350;2023-09-18T03:44:11;95854.94;;;18.73;100.00
14067;BME280;7108;42.684;23.350;2023-09-18T03:46:36;95843.28;;;18.62;100.00
14067;BME280;7108;42.684;23.350;2023-09-18T03:49:02;95851.81;;;18.68;100.00
14067;BME280;7108;42.684;23.350;2023-09-18T03:51:28;95854.19;;;18.66;100.00
14067;BME280;7108;42.684;23.350;2023-09-18T03:53:55;95845.59;;;18.60;100.00
14067;BME280;7108;42.684;23.350;2023-09-18T03:56:20;95835.09;;;18.55;100.00
14067;BME280;7108;42.684;23.350;2023-09-18T03:58:47;95858.84;;;18.62;100.00
14067;BME280;7108;42.684;23.350;2023-09-18T04:01:15;95838.22;;;18.43;100.00
14067;BME280;7108;42.684;23.350;2023-09-18T04:03:41;95849.13;;;18.47;100.00
14067;BME280;7108;42.684;23.350;2023-09-18T04:06:06;95860.84;;;18.47;100.00
14067;BME280;7108;42.684;23.350;2023-09-18T04:08:32;95823.44;;;18.27;100.00
14067;BME280;7108;42.684;23.350;2023-09-18T04:10:57;95856.97;;;18.48;100.00
14067;BME280;7108;42.684;23.350;2023-09-18T04:13:23;95852.66;;;18.34;100.00
14067;BME280;7108;42.684;23.350;2023-09-18T04:15:48;95805.88;;;18.04;100.00
14067;BME280;7108;42.684;23.350;2023-09-18T04:18:14;95828.88;;;18.20;100.00
14067;BME280;7108;42.684;23.350;2023-09-18T04:20:39;95869.44;;;18.36;100.00
14067;BME280;7108;42.684;23.350;2023-09-18T04:25:47;95851.91;;;18.19;100.00
14067;BME280;7108;42.684;23.350;2023-09-18T04:28:14;95846.81;;;18.28;100.00
14067;BME280;7108;42.684;23.350;2023-09-18T04:30:39;95869.44;;;18.39;100.00
14067;BME280;7108;42.684;23.350;2023-09-18T04:33:05;95854.25;;;18.28;100.00
14067;BME280;7108;42.684;23.350;2023-09-18T04:35:31;95858.13;;;18.27;100.00
14067;BME280;7108;42.684;23.350;2023-09-18T04:37:58;95849.56;;;18.28;100.00
14067;BME280;7108;42.684;23.350;2023-09-18T04:40:24;95874.88;;;18.39;100.00
14067;BME280;7108;42.684;23.350;2023-09-18T04:42:51;95853.44;;;18.31;100.00
14067;BME280;7108;42.684;23.350;2023-09-18T04:45:17;95845.25;;;18.31;100.00
14067;BME280;7108;42.684;23.350;2023-09-18T04:47:42;95869.03;;;18.51;100.00
14067;BME280;7108;42.684;23.350;2023-09-18T04:50:08;95848.38;;;18.36;100.00
14067;BME280;7108;42.684;23.350;2023-09-18T04:52:33;95865.50;;;18.50;100.00
14067;BME280;7108;42.684;23.350;2023-09-18T04:54:59;95874.50;;;18.51;100.00
14067;BME280;7108;42.684;23.350;2023-09-18T04:57:24;95855.38;;;18.47;100.00
14067;BME280;7108;42.684;23.350;2023-09-18T04:59:50;95858.50;;;18.46;100.00
14067;BME280;7108;42.684;23.350;2023-09-18T05:02:15;95858.13;;;18.47;100.00
14067;BME280;7108;42.684;23.350;2023-09-18T05:04:42;95833.56;;;18.34;100.00
14067;BME280;7108;42.684;23.350;2023-09-18T05:07:07;95844.06;;;18.42;100.00
14067;BME280;7108;42.684;23.350;2023-09-18T05:09:32;95858.50;;;18.49;100.00
14067;BME280;7108;42.684;23.350;2023-09-18T05:11:59;95857.31;;;18.43;100.00
14067;BME280;7108;42.684;23.350;2023-09-18T05:14:25;95851.50;;;18.42;100.00
14067;BME280;7108;42.684;23.350;2023-09-18T05:16:50;95844.06;;;18.42;100.00
14067;BME280;7108;42.684;23.350;2023-09-18T05:19:16;95835.53;;;18.33;100.00
14067;BME280;7108;42.684;23.350;2023-09-18T05:21:41;95868.25;;;18.47;100.00
14067;BME280;7108;42.684;23.350;2023-09-18T05:24:07;95844.50;;;18.30;100.00
14067;BME280;7108;42.684;23.350;2023-09-18T05:26:33;95847.53;;;18.67;100.00
14067;BME280;7108;42.684;23.350;2023-09-18T05:28:59;95845.09;;;19.04;100.00
14067;BME280;7108;42.684;23.350;2023-09-18T05:31:24;95871.81;;;19.57;100.00
14067;BME280;7108;42.684;23.350;2023-09-18T05:33:50;95858.22;;;20.11;100.00
14067;BME280;7108;42.684;23.350;2023-09-18T05:36:15;95835.00;;;20.70;100.00
14067;BME280;7108;42.684;23.350;2023-09-18T05:38:41;95801.09;;;20.94;100.00
14067;BME280;7108;42.684;23.350;2023-09-18T05:41:08;95839.59;;;21.46;100.00
14067;BME280;7108;42.684;23.350;2023-09-18T05:43:35;95769.97;;;21.10;100.00
14067;BME280;7108;42.684;23.350;2023-09-18T05:46:01;95855.38;;;21.39;100.00
14067;BME280;7108;42.684;23.350;2023-09-18T05:48:26;95812.13;;;21.20;100.00
14067;BME280;7108;42.684;23.350;2023-09-18T05:50:52;95773.44;;;20.81;100.00
14067;BME280;7108;42.684;23.350;2023-09-18T05:53:19;95821.66;;;21.08;100.00
14067;BME280;7108;42.684;23.350;2023-09-18T05:55:45;95807.50;;;20.80;100.00
14067;BME280;7108;42.684;23.350;2023-09-18T05:58:11;95837.66;;;20.77;100.00
14067;BME280;7108;42.684;23.350;2023-09-18T06:00:36;95849.81;;;20.79;100.00
14067;BME280;7108;42.684;23.350;2023-09-18T06:03:02;95866.25;;;20.79;100.00
14067;BME280;7108;42.684;23.350;2023-09-18T06:05:28;95857.69;;;20.70;100.00
14067;BME280;7108;42.684;23.350;2023-09-18T06:07:56;95847.16;;;20.65;100.00
14067;BME280;7108;42.684;23.350;2023-09-18T06:10:22;95854.63;;;20.61;100.00
14067;BME280;7108;42.684;23.350;2023-09-18T06:12:47;95837.31;;;20.31;100.00
14067;BME280;7108;42.684;23.350;2023-09-18T06:15:13;95854.09;;;20.37;100.00
14067;BME280;7108;42.684;23.350;2023-09-18T06:17:41;95857.25;;;20.35;100.00
14067;BME280;7108;42.684;23.350;2023-09-18T06:20:08;95846.81;;;20.16;100.00
14067;BME280;7108;42.684;23.350;2023-09-18T06:22:38;95848.81;;;20.12;100.00
14067;BME280;7108;42.684;23.350;2023-09-18T06:25:05;95857.78;;;20.13;100.00
14067;BME280;7108;42.684;23.350;2023-09-18T06:27:33;95860.16;;;20.14;100.00
14067;BME280;7108;42.684;23.350;2023-09-18T06:29:59;95851.69;;;19.91;100.00
14067;BME280;7108;42.684;23.350;2023-09-18T06:32:24;95840.38;;;19.86;100.00
14067;BME280;7108;42.684;23.350;2023-09-18T06:34:53;95859.13;;;19.87;100.00
14067;BME280;7108;42.684;23.350;2023-09-18T06:37:18;95848.97;;;19.84;100.00
14067;BME280;7108;42.684;23.350;2023-09-18T06:39:44;95857.16;;;19.98;100.00
14067;BME280;7108;42.684;23.350;2023-09-18T06:42:09;95865.78;;;19.93;100.00
14067;BME280;7108;42.684;23.350;2023-09-18T06:44:35;95877.34;;;20.11;100.00
14067;BME280;7108;42.684;23.350;2023-09-18T06:47:00;95875.81;;;20.10;100.00
14067;BME280;7108;42.684;23.350;2023-09-18T06:49:25;95864.50;;;20.08;100.00
14067;BME280;7108;42.684;23.350;2023-09-18T06:51:51;95843.47;;;19.98;100.00
14067;BME280;7108;42.684;23.350;2023-09-18T06:54:17;95867.66;;;20.03;100.00
14067;BME280;7108;42.684;23.350;2023-09-18T06:56:43;95841.59;;;19.81;100.00
14067;BME280;7108;42.684;23.350;2023-09-18T06:59:10;95858.75;;;19.92;100.00
14067;BME280;7108;42.684;23.350;2023-09-18T07:01:37;95871.19;;;20.00;100.00
14067;BME280;7108;42.684;23.350;2023-09-18T07:04:02;95824.09;;;19.69;100.00
14067;BME280;7108;42.684;23.350;2023-09-18T07:06:29;95872.00;;;19.97;100.00
14067;BME280;7108;42.684;23.350;2023-09-18T07:08:55;95870.00;;;20.05;100.00
14067;BME280;7108;42.684;23.350;2023-09-18T07:11:20;95869.56;;;20.06;100.00
14067;BME280;7108;42.684;23.350;2023-09-18T07:13:46;95868.28;;;20.21;100.00
14067;BME280;7108;42.684;23.350;2023-09-18T07:16:11;95858.94;;;20.19;100.00
14067;BME280;7108;42.684;23.350;2023-09-18T07:18:37;95856.88;;;20.30;100.00
14067;BME280;7108;42.684;23.350;2023-09-18T07:21:03;95851.34;;;20.37;100.00
14067;BME280;7108;42.684;23.350;2023-09-18T07:23:28;95871.13;;;20.54;100.00
14067;BME280;7108;42.684;23.350;2023-09-18T07:25:54;95870.34;;;20.57;100.00
14067;BME280;7108;42.684;23.350;2023-09-18T07:28:19;95839.28;;;20.31;100.00
14067;BME280;7108;42.684;23.350;2023-09-18T07:30:45;95874.56;;;20.62;100.00
14067;BME280;7108;42.684;23.350;2023-09-18T07:33:11;95863.63;;;20.62;100.00
14067;BME280;7108;42.684;23.350;2023-09-18T07:35:37;95863.53;;;20.72;100.00
14067;BME280;7108;42.684;23.350;2023-09-18T07:38:03;95865.44;;;20.79;100.00
14067;BME280;7108;42.684;23.350;2023-09-18T07:40:29;95869.31;;;20.85;100.00
14067;BME280;7108;42.684;23.350;2023-09-18T07:42:54;95873.16;;;20.91;100.00
14067;BME280;7108;42.684;23.350;2023-09-18T07:45:20;95836.41;;;20.88;100.00
14067;BME280;7108;42.684;23.350;2023-09-18T07:47:45;95836.38;;;20.92;100.00
14067;BME280;7108;42.684;23.350;2023-09-18T07:50:12;95855.75;;;21.08;100.00
14067;BME280;7108;42.684;23.350;2023-09-18T07:52:38;95849.06;;;21.08;100.00
14067;BME280;7108;42.684;23.350;2023-09-18T07:55:04;95830.75;;;21.02;100.00
14067;BME280;7108;42.684;23.350;2023-09-18T07:57:29;95835.31;;;21.12;100.00
14067;BME280;7108;42.684;23.350;2023-09-18T07:59:58;95846.66;;;21.14;100.00
14067;BME280;7108;42.684;23.350;2023-09-18T08:02:24;95832.97;;;21.14;100.00
14067;BME280;7108;42.684;23.350;2023-09-18T08:04:50;95814.69;;;21.04;100.00
14067;BME280;7108;42.684;23.350;2023-09-18T08:07:18;95832.94;;;21.17;100.00
14067;BME280;7108;42.684;23.350;2023-09-18T08:09:44;95828.94;;;21.22;100.00
14067;BME280;7108;42.684;23.350;2023-09-18T08:12:10;95832.44;;;21.26;100.00
14067;BME280;7108;42.684;23.350;2023-09-18T08:14:35;95837.72;;;21.40;100.00
14067;BME280;7108;42.684;23.350;2023-09-18T08:17:02;95781.22;;;21.16;100.00
14067;BME280;7108;42.684;23.350;2023-09-18T08:19:33;95819.25;;;21.44;100.00
14067;BME280;7108;42.684;23.350;2023-09-18T08:21:58;95843.25;;;21.66;100.00
14067;BME280;7108;42.684;23.350;2023-09-18T08:24:27;95821.44;;;21.59;100.00
14067;BME280;7108;42.684;23.350;2023-09-18T08:26:52;95823.22;;;21.73;100.00
14067;BME280;7108;42.684;23.350;2023-09-18T08:29:19;95838.78;;;21.79;100.00
14067;BME280;7108;42.684;23.350;2023-09-18T08:31:45;95796.75;;;21.59;100.00
14067;BME280;7108;42.684;23.350;2023-09-18T08:34:10;95824.88;;;21.89;100.00
14067;BME280;7108;42.684;23.350;2023-09-18T08:36:36;95822.28;;;21.82;100.00
14067;BME280;7108;42.684;23.350;2023-09-18T08:39:01;95824.84;;;21.93;100.00
14067;BME280;7108;42.684;23.350;2023-09-18T08:41:38;95799.78;;;21.91;100.00
14067;BME280;7108;42.684;23.350;2023-09-18T08:44:08;95813.72;;;22.03;100.00
14067;BME280;7108;42.684;23.350;2023-09-18T08:46:36;95794.66;;;21.93;100.00
14067;BME280;7108;42.684;23.350;2023-09-18T08:49:03;95791.16;;;21.92;100.00
14067;BME280;7108;42.684;23.350;2023-09-18T08:51:29;95799.25;;;21.99;100.00
14067;BME280;7108;42.684;23.350;2023-09-18T08:53:56;95802.91;;;22.16;100.00
14067;BME280;7108;42.684;23.350;2023-09-18T08:56:22;95801.66;;;22.20;100.00
14067;BME280;7108;42.684;23.350;2023-09-18T08:58:48;95751.97;;;21.88;100.00
14067;BME280;7108;42.684;23.350;2023-09-18T09:01:14;95780.06;;;22.22;100.00
14067;BME280;7108;42.684;23.350;2023-09-18T09:03:41;95784.69;;;22.25;100.00
14067;BME280;7108;42.684;23.350;2023-09-18T09:06:13;95798.94;;;22.43;100.00
14067;BME280;7108;42.684;23.350;2023-09-18T09:08:38;95788.22;;;22.29;100.00
14067;BME280;7108;42.684;23.350;2023-09-18T09:11:05;95790.97;;;22.26;100.00
14067;BME280;7108;42.684;23.350;2023-09-18T09:13:31;95798.28;;;22.36;100.00
14067;BME280;7108;42.684;23.350;2023-09-18T09:15:58;95774.13;;;22.27;100.00
14067;BME280;7108;42.684;23.350;2023-09-18T09:18:25;95778.34;;;22.32;100.00
14067;BME280;7108;42.684;23.350;2023-09-18T09:21:02;95777.88;;;22.37;100.00
14067;BME280;7108;42.684;23.350;2023-09-18T09:23:45;95783.59;;;22.45;100.00
14067;BME280;7108;42.684;23.350;2023-09-18T09:26:28;95778.59;;;22.41;100.00
14067;BME280;7108;42.684;23.350;2023-09-18T09:28:55;95738.78;;;22.29;100.00
14067;BME280;7108;42.684;23.350;2023-09-18T09:31:25;95790.09;;;22.55;100.00
14067;BME280;7108;42.684;23.350;2023-09-18T09:33:54;95752.72;;;22.38;100.00
14067;BME280;7108;42.684;23.350;2023-09-18T09:36:21;95784.88;;;22.60;100.00
14067;BME280;7108;42.684;23.350;2023-09-18T09:38:47;95764.09;;;22.59;100.00
14067;BME280;7108;42.684;23.350;2023-09-18T09:41:15;95775.81;;;22.83;100.00
14067;BME280;7108;42.684;23.350;2023-09-18T09:43:43;95763.63;;;22.84;100.00
14067;BME280;7108;42.684;23.350;2023-09-18T09:46:16;95755.38;;;22.84;100.00
14067;BME280;7108;42.684;23.350;2023-09-18T09:49:00;95758.00;;;22.91;100.00
14067;BME280;7108;42.684;23.350;2023-09-18T09:51:26;95769.75;;;22.91;100.00
14067;BME280;7108;42.684;23.350;2023-09-18T09:53:52;95771.13;;;23.03;100.00
14067;BME280;7108;42.684;23.350;2023-09-18T09:56:18;95762.38;;;23.08;100.00
14067;BME280;7108;42.684;23.350;2023-09-18T09:59:04;95760.53;;;23.20;100.00
14067;BME280;7108;42.684;23.350;2023-09-18T10:01:33;95744.13;;;23.17;100.00
14067;BME280;7108;42.684;23.350;2023-09-18T10:04:03;95748.97;;;23.29;100.00
14067;BME280;7108;42.684;23.350;2023-09-18T10:06:31;95758.81;;;23.46;100.00
14067;BME280;7108;42.684;23.350;2023-09-18T10:08:58;95742.13;;;23.53;100.00
14067;BME280;7108;42.684;23.350;2023-09-18T10:11:24;95755.66;;;23.63;100.00
14067;BME280;7108;42.684;23.350;2023-09-18T10:13:55;95752.16;;;23.78;100.00
14067;BME280;7108;42.684;23.350;2023-09-18T10:16:23;95746.84;;;23.87;100.00
14067;BME280;7108;42.684;23.350;2023-09-18T10:19:17;95729.97;;;23.85;100.00
14067;BME280;7108;42.684;23.350;2023-09-18T10:22:03;95733.94;;;24.00;100.00
14067;BME280;7108;42.684;23.350;2023-09-18T10:24:34;95742.13;;;24.04;100.00
14067;BME280;7108;42.684;23.350;2023-09-18T10:27:06;95733.56;;;24.14;100.00
14067;BME280;7108;42.684;23.350;2023-09-18T10:29:35;95741.66;;;24.21;100.00
14067;BME280;7108;42.684;23.350;2023-09-18T10:32:07;95736.06;;;24.25;100.00
14067;BME280;7108;42.684;23.350;2023-09-18T10:34:34;95727.13;;;24.21;100.00
14067;BME280;7108;42.684;23.350;2023-09-18T10:37:01;95724.09;;;24.31;100.00
14067;BME280;7108;42.684;23.350;2023-09-18T10:39:30;95689.91;;;24.29;100.00
14067;BME280;7108;42.684;23.350;2023-09-18T10:42:01;95711.50;;;24.46;98.25
14067;BME280;7108;42.684;23.350;2023-09-18T10:44:28;95693.25;;;24.36;95.95
14067;BME280;7108;42.684;23.350;2023-09-18T10:46:54;95689.38;;;24.34;97.57
14067;BME280;7108;42.684;23.350;2023-09-18T10:49:21;95701.09;;;24.38;97.81
14067;BME280;7108;42.684;23.350;2023-09-18T10:51:47;95683.03;;;24.37;100.00
14067;BME280;7108;42.684;23.350;2023-09-18T10:54:20;95692.22;;;24.46;99.02
14067;BME280;7108;42.684;23.350;2023-09-18T10:56:46;95684.31;;;24.48;95.62
14067;BME280;7108;42.684;23.350;2023-09-18T10:59:14;95691.28;;;24.52;93.31
14067;BME280;7108;42.684;23.350;2023-09-18T11:01:40;95679.78;;;24.42;94.23
14067;BME280;7108;42.684;23.350;2023-09-18T11:04:07;95672.28;;;24.42;93.07
14067;BME280;7108;42.684;23.350;2023-09-18T11:07:22;95686.88;;;24.55;91.79
14067;BME280;7108;42.684;23.350;2023-09-18T11:09:48;95689.97;;;24.57;94.80
14067;BME280;7108;42.684;23.350;2023-09-18T11:12:16;95683.81;;;24.65;93.25
14067;BME280;7108;42.684;23.350;2023-09-18T11:20:18;95663.00;;;24.77;94.79
14067;BME280;7108;42.684;23.350;2023-09-18T11:22:48;95675.84;;;24.96;91.80
14067;BME280;7108;42.684;23.350;2023-09-18T11:28:01;95638.84;;;25.09;87.34
14067;BME280;7108;42.684;23.350;2023-09-18T11:30:28;95651.75;;;25.12;86.46
14067;BME280;7108;42.684;23.350;2023-09-18T11:32:54;95654.50;;;25.24;87.73
14067;BME280;7108;42.684;23.350;2023-09-18T11:35:21;95657.81;;;25.32;84.01
14067;BME280;7108;42.684;23.350;2023-09-18T11:37:47;95654.50;;;25.37;85.04
14067;BME280;7108;42.684;23.350;2023-09-18T11:40:32;95643.47;;;25.37;80.47
14067;BME280;7108;42.684;23.350;2023-09-18T11:45:49;95638.38;;;25.35;82.12
14067;BME280;7108;42.684;23.350;2023-09-18T11:48:17;95641.38;;;25.41;81.96
14067;BME280;7108;42.684;23.350;2023-09-18T11:50:44;95619.41;;;25.37;80.29
14067;BME280;7108;42.684;23.350;2023-09-18T11:53:11;95612.66;;;25.38;84.50
14067;BME280;7108;42.684;23.350;2023-09-18T11:55:39;95633.84;;;25.66;81.89
14067;BME280;7108;42.684;23.350;2023-09-18T11:58:05;95638.38;;;25.73;85.99
14067;BME280;7108;42.684;23.350;2023-09-18T12:00:31;95622.78;;;25.66;81.08
14067;BME280;7108;42.684;23.350;2023-09-18T12:02:56;95646.34;;;25.58;79.33
14067;BME280;7108;42.684;23.350;2023-09-18T12:05:23;95624.16;;;25.37;79.73
14067;BME280;7108;42.684;23.350;2023-09-18T12:07:51;95626.03;;;25.27;82.67
14067;BME280;7108;42.684;23.350;2023-09-18T12:10:19;95629.56;;;25.40;83.84
14067;BME280;7108;42.684;23.350;2023-09-18T12:12:46;95631.19;;;25.50;84.52
14067;BME280;7108;42.684;23.350;2023-09-18T12:15:13;95625.66;;;25.63;84.32
14067;BME280;7108;42.684;23.350;2023-09-18T12:17:40;95628.69;;;25.56;83.80
14067;BME280;7108;42.684;23.350;2023-09-18T12:20:06;95636.06;;;25.46;86.75
14067;BME280;7108;42.684;23.350;2023-09-18T12:22:32;95622.06;;;25.28;86.97
14067;BME280;7108;42.684;23.350;2023-09-18T12:25:11;95612.03;;;25.10;88.11
14067;BME280;7108;42.684;23.350;2023-09-18T12:27:42;95623.59;;;25.17;85.63
14067;BME280;7108;42.684;23.350;2023-09-18T12:30:08;95611.56;;;25.11;85.77
14067;BME280;7108;42.684;23.350;2023-09-18T12:32:38;95609.47;;;25.15;84.43
14067;BME280;7108;42.684;23.350;2023-09-18T12:35:06;95615.66;;;25.31;83.65
14067;BME280;7108;42.684;23.350;2023-09-18T12:37:39;95603.41;;;25.32;85.59
14067;BME280;7108;42.684;23.350;2023-09-18T12:40:05;95608.94;;;25.32;82.45
14067;BME280;7108;42.684;23.350;2023-09-18T12:42:37;95622.94;;;25.38;83.27
14067;BME280;7108;42.684;23.350;2023-09-18T12:45:07;95610.69;;;25.39;83.55
14067;BME280;7108;42.684;23.350;2023-09-18T12:47:33;95606.84;;;25.36;85.56
14067;BME280;7108;42.684;23.350;2023-09-18T12:50:05;95601.31;;;25.36;83.24
14067;BME280;7108;42.684;23.350;2023-09-18T12:52:36;95600.41;;;25.39;85.62
14067;BME280;7108;42.684;23.350;2023-09-18T12:55:02;95609.59;;;25.36;86.14
14067;BME280;7108;42.684;23.350;2023-09-18T12:57:29;95601.41;;;25.33;84.05
14067;BME280;7108;42.684;23.350;2023-09-18T12:59:55;95612.47;;;25.33;83.79
14067;BME280;7108;42.684;23.350;2023-09-18T13:02:21;95601.09;;;25.18;82.70
14067;BME280;7108;42.684;23.350;2023-09-18T13:04:56;95590.06;;;25.06;83.05
14067;BME280;7108;42.684;23.350;2023-09-18T13:07:23;95578.13;;;24.97;84.08